CST,Max TemperatureF,Mean TemperatureF,Min TemperatureF,Max Dew PointF,MeanDew PointF,Min DewpointF,Max Humidity, Mean Humidity, Min Humidity, Max Sea Level PressureIn, Mean Sea Level PressureIn, Min Sea Level PressureIn, Max VisibilityMiles, Mean VisibilityMiles, Min VisibilityMiles, Max Wind SpeedMPH, Mean Wind SpeedMPH, Max Gust SpeedMPH,PrecipitationIn, CloudCover, Events, WindDirDegrees
2013-11-1,46,38,30,37,33,28,100,84,62,29.87,29.63,29.43,10,8,3,13,6,17,0.00,4,,300
2013-11-2,48,37,26,36,31,27,100,85,57,30.04,29.99,29.88,10,9,5,9,4,,0.00,3,,280
2013-11-3,51,40,30,34,32,28,100,69,47,30.01,29.86,29.74,10,10,7,30,12,39,0.00,2,,140
2013-11-4,46,38,30,36,31,25,100,79,62,30.07,29.84,29.71,10,10,4,20,12,28,0.01,4,Rain,218
2013-11-5,32,28,24,25,22,19,86,79,64,30.21,30.13,30.07,10,10,10,8,5,,0.00,2,,255
2013-11-6,37,28,19,25,20,14,93,74,55,30.13,30.07,30.05,10,10,10,9,4,,0.00,3,,292
2013-11-7,33,24,15,23,20,16,100,82,55,30.19,30.15,30.11,10,10,7,13,2,,0.00,3,,268
2013-11-8,37,28,19,30,25,18,100,83,56,30.11,29.80,29.56,10,8,2,23,5,31,0.02,5,Rain-Snow,125
2013-11-9,35,32,30,34,29,25,100,83,70,30.22,29.89,29.59,10,9,2,22,12,32,0.00,8,Rain-Snow,289
2013-11-10,35,27,19,27,24,9,93,76,58,30.27,30.19,30.09,10,10,10,22,9,26,0.00,5,,269
2013-11-11,19,12,6,10,4,3,85,72,58,30.71,30.51,30.23,10,10,10,18,13,22,0.00,3,,335
2013-11-12,30,16,3,14,7,1,92,67,37,30.71,30.56,30.26,10,10,10,14,5,20,0.00,0,,219
2013-11-13,50,34,17,34,26,12,93,72,54,30.25,29.93,29.81,10,10,10,17,9,23,0.00,0,,226
2013-11-14,46,37,28,34,31,27,100,82,62,29.81,29.77,29.73,10,10,10,12,4,,0.00,1,,259
2013-11-15,51,36,21,36,32,21,100,81,50,29.77,29.66,29.48,10,8,0,18,7,26,0.00,2,Fog,184
2013-11-16,41,36,32,39,37,30,100,93,76,29.47,29.33,29.24,10,4,0,17,10,23,0.02,5,Fog-Rain-Thunderstorm,130
2013-11-17,39,31,23,39,30,19,100,93,80,29.84,29.50,29.25,10,9,0,26,11,32,0.01,8,Fog,299
2013-11-18,26,20,15,19,17,12,93,84,69,30.18,30.08,29.84,10,10,10,21,12,31,0.00,5,,306
2013-11-19,42,30,17,30,23,14,93,75,57,30.17,29.90,29.69,10,10,10,26,12,37,0.00,0,,136
2013-11-20,46,37,28,30,29,27,93,68,53,30.02,29.82,29.69,10,10,7,21,12,29,0.00,1,,165
2013-11-21,28,17,6,25,12,3,100,79,63,30.55,30.34,30.03,10,10,2,21,13,26,0.00,5,Snow,320
2013-11-22,21,11,0,12,4,-2,92,79,63,30.68,30.51,30.43,10,10,3,18,7,25,0.00,1,Snow,284
2013-11-23,10,3,-4,0,-4,-8,85,77,52,30.82,30.74,30.60,10,10,10,15,8,18,0.00,0,,307
2013-11-24,37,18,0,27,11,-4,85,64,41,30.59,30.11,29.77,10,10,10,21,10,28,0.00,,,187
2013-11-25,33,26,19,27,23,14,86,79,65,30.08,29.94,29.78,10,10,5,23,11,30,0.00,,Snow,286
2013-11-26,19,11,3,16,5,1,92,74,58,30.37,30.26,30.09,10,10,5,28,15,37,0.00,,Snow,315
2013-11-27,17,8,0,10,5,-4,92,79,63,30.37,30.15,29.98,10,10,10,15,4,21,0.00,,Snow,140
2013-11-28,21,11,1,12,8,-2,92,75,58,30.44,30.28,30.04,10,10,4,17,5,23,0.00,,Snow,317
2013-11-29,28,16,3,18,12,0,92,74,59,30.43,30.23,29.99,10,10,10,18,6,25,0.00,,,150
2013-11-30,26,22,17,19,18,16,93,87,74,30.17,30.06,29.97,10,9,7,13,5,,0.00,,,311